Date,TemperatureHighF,TemperatureAvgF,TemperatureLowF,DewpointHighF,DewpointAvgF,DewpointLowF,HumidityHigh,HumidityAvg,HumidityLow,PressureMaxIn,PressureMinIn,WindSpeedMaxMPH,WindSpeedAvgMPH,GustSpeedMaxMPH,PrecipitationSumIn
2012-1-1,60.8,53.5,44.1,44.0,32.4,27.6,72,46,32,30.62,30.18,13,5,13,0.00
2012-1-2,60.1,48.8,39.1,29.1,25.9,22.5,56,42,25,30.76,30.61,10,3,10,0.00
2012-1-3,60.7,46.3,32.2,35.6,27.2,23.2,70,50,29,30.67,30.35,13,2,13,0.00
2012-1-4,69.7,54.2,41.8,50.1,40.7,34.4,81,62,43,30.37,30.26,7,1,7,0.00
2012-1-5,69.5,57.9,48.2,53.7,43.7,33.9,73,59,48,30.40,30.18,10,2,10,0.00
2012-1-6,72.7,61.0,49.9,55.9,51.3,45.4,89,72,54,30.18,29.97,17,3,17,0.00
2012-1-7,70.0,58.4,49.5,53.1,48.1,41.7,92,70,48,30.13,30.01,5,1,5,0.01
2012-1-8,65.2,57.9,50.8,58.5,50.5,40.6,85,76,63,30.11,29.99,8,2,8,0.00
2012-1-9,60.5,51.2,43.2,56.0,46.9,36.9,92,86,76,30.16,29.98,16,5,16,0.08
2012-1-10,62.3,49.2,40.3,42.4,35.7,31.2,83,62,33,30.14,29.97,15,4,15,0.00
2012-1-11,72.7,56.3,39.2,41.8,36.3,31.0,75,50,27,29.98,29.77,16,4,16,0.00
2012-1-12,52.2,43.4,38.2,37.9,20.0,8.8,64,41,23,30.37,29.98,19,5,19,0.00
2012-1-13,57.1,44.7,34.7,27.3,20.7,16.8,58,40,24,30.40,30.30,10,1,10,0.00
2012-1-14,63.2,46.7,34.2,32.0,25.1,18.6,65,45,25,30.49,30.35,10,2,10,0.00
2012-1-15,63.7,51.6,36.5,55.7,40.4,24.8,83,66,54,30.40,30.24,11,2,11,0.00
2012-1-16,76.5,65.6,60.5,64.5,59.3,55.4,90,81,62,30.26,30.03,15,4,15,0.00
2012-1-17,74.7,63.8,46.8,63.6,49.6,28.3,92,64,33,30.32,30.04,10,4,10,0.00
2012-1-18,65.2,50.1,37.3,42.6,32.2,23.4,64,51,37,30.39,30.13,9,3,9,0.00
2012-1-19,75.4,60.8,47.5,56.5,48.5,37.6,81,65,48,30.13,29.93,12,4,12,0.00
2012-1-20,71.3,62.2,54.4,63.6,57.7,50.1,90,85,76,29.98,29.87,9,2,9,0.01
2012-1-21,66.2,56.5,47.2,58.4,45.5,37.4,90,68,46,30.10,29.94,8,1,8,0.01
2012-1-22,72.4,60.3,50.8,63.7,52.8,35.9,88,77,40,30.00,29.84,11,1,11,0.00
2012-1-23,68.8,56.7,48.4,44.1,38.0,31.3,65,50,38,30.20,30.00,9,1,9,0.00
2012-1-24,67.9,59.4,50.8,65.1,52.8,39.3,92,80,62,30.08,29.84,8,2,8,0.12
2012-1-25,68.0,57.2,45.7,65.3,52.1,41.3,92,83,72,30.05,29.75,25,4,25,3.48
2012-1-26,69.1,53.9,42.8,45.6,39.9,35.8,89,63,30,30.17,30.02,11,3,11,0.00
2012-1-27,73.1,55.4,40.7,48.8,41.1,34.9,81,61,37,30.17,30.00,15,3,15,0.00
2012-1-28,59.8,52.4,41.4,46.1,31.1,24.9,82,46,28,30.48,30.14,13,4,13,0.00
2012-1-29,62.6,48.7,36.4,37.1,31.4,26.0,68,53,37,30.53,30.38,7,1,7,0.00
2012-1-30,63.4,53.9,44.3,56.5,46.3,34.6,89,76,61,30.39,30.19,8,1,8,0.43
2012-1-31,69.7,63.0,58.5,62.1,58.6,54.6,92,86,75,30.21,30.10,14,3,14,0.05
2012-2-1,76.9,67.2,59.4,67.7,62.1,55.9,93,84,66,30.20,30.10,7,1,7,0.01
2012-2-2,74.5,66.0,58.3,67.7,61.7,55.1,92,86,77,30.17,29.99,10,2,10,0.02
2012-2-3,76.5,70.1,65.7,67.2,64.9,62.7,91,84,72,30.06,29.96,11,3,11,0.23
2012-2-4,68.6,56.0,51.1,65.5,45.5,38.3,91,69,52,30.33,30.03,12,5,12,1.01
2012-2-5,50.9,45.4,41.2,41.8,38.5,35.0,88,77,61,30.42,30.27,12,4,12,0.24
2012-2-6,51.1,45.4,41.8,42.4,38.5,35.4,84,77,66,30.40,30.22,6,1,6,0.03
2012-2-7,61.7,51.6,40.3,47.9,43.6,36.7,88,75,57,30.39,30.20,5,1,5,0.00
2012-2-8,57.4,49.3,42.1,45.6,40.4,35.7,81,72,58,30.51,30.34,9,2,10,0.00
2012-2-9,59.6,49.1,38.0,46.0,41.1,34.7,89,75,59,30.38,30.16,10,2,10,0.00
2012-2-10,61.4,52.8,44.5,50.7,43.4,34.6,91,73,40,30.36,30.13,9,2,9,0.24
2012-2-11,52.9,44.4,37.4,37.5,28.8,18.5,82,56,37,30.56,30.33,10,3,10,0.00
2012-2-12,43.0,37.4,30.8,34.7,23.5,18.0,84,57,46,30.56,30.20,8,3,8,0.02
2012-2-13,64.8,50.8,39.2,54.5,45.6,34.8,91,83,68,30.20,29.91,11,2,11,0.36
2012-2-14,70.9,56.8,42.5,59.0,51.0,39.2,90,82,65,30.03,29.92,12,2,12,0.01
2012-2-15,77.9,67.3,56.5,66.9,56.8,45.6,93,72,39,30.12,29.95,11,2,11,0.00
2012-2-16,66.6,57.8,51.8,47.6,43.2,38.4,77,59,41,30.25,30.11,14,2,14,0.00
2012-2-17,56.2,53.5,50.0,54.0,50.6,47.2,93,90,76,30.15,29.91,8,3,8,0.68
2012-2-18,58.1,54.8,48.8,54.9,50.9,44.1,93,87,73,30.13,29.84,16,4,16,1.13
2012-2-19,63.0,53.1,45.0,49.4,44.9,40.8,86,74,59,30.20,30.07,8,2,8,0.00
2012-2-20,69.1,57.3,48.2,58.2,51.2,43.7,88,81,66,30.19,30.05,13,2,13,0.00
2012-2-21,74.9,64.2,55.1,62.8,57.1,51.6,91,79,54,30.24,30.06,13,2,13,0.00
2012-2-22,80.8,69.4,61.6,64.6,58.8,49.0,90,71,47,30.07,29.80,12,5,12,0.00
2012-2-23,85.9,70.6,57.1,65.5,53.2,48.0,79,58,30,29.81,29.66,13,3,13,0.00
2012-2-24,69.8,55.4,45.7,61.2,27.1,21.1,79,35,23,30.44,29.76,15,6,20,0.00
2012-2-25,58.3,48.0,41.8,33.7,29.7,25.9,60,50,36,30.49,30.28,9,2,9,0.00
2012-2-26,64.1,52.5,37.4,50.9,41.9,29.3,77,67,58,30.28,30.09,15,3,15,0.00
2012-2-27,64.3,61.4,58.5,61.0,57.3,50.8,91,86,73,30.27,30.16,8,2,8,0.10
2012-2-28,77.4,68.1,61.2,67.7,63.4,58.6,93,85,71,30.20,29.98,19,5,19,0.02
2012-2-29,79.6,69.5,63.2,68.0,61.3,55.4,90,76,48,30.11,30.00,8,2,8,0.00
2012-3-1,74.0,66.2,58.3,67.7,61.2,53.2,89,84,76,30.03,29.79,7,1,7,0.00
2012-3-2,83.2,72.0,61.0,69.2,57.8,42.3,91,65,26,29.86,29.74,9,3,9,0.00
2012-3-3,64.3,56.9,46.4,42.6,31.1,19.0,71,40,21,30.28,29.86,15,5,15,0.02
2012-3-4,72.7,56.0,39.1,38.5,32.7,28.5,68,45,23,30.34,30.20,14,3,14,0.00
2012-3-5,76.1,60.0,43.6,49.6,40.5,31.2,74,51,30,30.41,30.27,16,4,16,0.00
2012-3-6,75.4,63.6,52.4,57.8,52.7,47.3,85,69,49,30.31,30.07,21,6,21,0.00
2012-3-7,73.8,67.7,63.4,65.6,61.9,57.4,86,82,75,30.10,29.94,16,6,16,0.02
2012-3-8,80.6,67.7,48.1,69.4,60.7,41.9,88,79,60,30.25,29.96,17,6,17,0.01
2012-3-9,48.1,43.9,42.3,42.6,40.1,37.7,91,86,80,30.39,30.20,15,5,15,0.13
2012-3-10,51.7,47.3,42.1,49.3,45.0,39.7,93,92,91,30.33,30.07,7,2,7,0.43
2012-3-11,74.3,60.3,50.9,58.8,52.9,48.6,93,79,53,30.12,30.02,11,3,11,0.38
2012-3-12,80.1,64.0,48.6,65.8,56.7,44.3,90,78,60,30.18,30.06,12,2,12,0.00
2012-3-13,82.6,71.1,64.4,68.7,64.2,60.2,89,80,63,30.20,30.07,12,4,12,0.00
2012-3-14,81.4,71.6,66.2,69.0,64.9,61.4,89,80,64,30.19,30.09,11,4,11,0.00
2012-3-15,83.7,72.6,67.0,68.3,64.8,62.3,88,77,56,30.23,30.10,15,4,15,0.00
2012-3-16,81.7,72.1,67.7,69.3,65.3,63.5,89,80,60,30.20,30.05,18,5,18,0.00
2012-3-17,81.4,71.9,66.6,67.2,64.3,62.1,87,78,58,30.13,30.00,14,4,14,0.00
2012-3-18,80.3,71.3,66.6,69.1,65.3,62.7,88,82,68,30.08,29.92,14,5,14,0.00
2012-3-19,81.0,72.2,68.0,69.4,66.2,64.0,89,82,65,29.99,29.64,19,6,19,0.07
2012-3-20,72.2,59.7,52.9,66.9,49.3,41.4,92,71,42,29.94,29.66,17,4,17,1.41
2012-3-21,72.9,60.8,48.8,49.7,40.0,35.2,79,49,26,29.99,29.89,18,4,18,0.00
2012-3-22,87.3,65.4,49.7,53.5,45.9,36.1,79,53,26,30.04,29.91,15,4,15,0.00
2012-3-23,88.0,66.6,48.8,58.2,50.4,41.9,80,58,34,30.13,29.99,9,2,9,0.00
2012-3-24,87.5,68.5,57.8,67.2,59.9,52.7,88,75,50,30.14,30.02,8,1,8,0.01
2012-3-25,87.8,69.6,58.7,64.9,58.8,54.5,89,71,39,30.17,30.05,5,1,5,0.00
2012-3-26,83.7,70.7,60.8,63.9,58.6,53.7,87,68,45,30.16,30.02,13,3,13,0.00
2012-3-27,83.9,70.9,62.5,68.4,62.0,54.4,86,74,58,30.13,30.03,9,3,9,0.00
2012-3-28,76.9,69.4,65.9,65.8,63.4,61.8,90,82,64,30.11,29.98,11,2,11,0.15
2012-3-29,84.8,72.8,64.8,70.5,65.4,61.6,91,79,58,30.04,29.86,11,2,11,0.03
2012-3-30,90.4,75.0,66.1,68.0,65.1,62.7,90,73,48,29.97,29.85,14,3,14,0.00
2012-3-31,93.6,76.6,64.4,69.6,65.2,60.2,90,71,41,29.96,29.85,10,3,10,0.00
2012-4-1,89.1,75.5,65.5,71.2,66.3,61.8,89,74,51,29.93,29.76,12,3,12,0.00
2012-4-2,91.3,74.9,60.5,70.1,64.5,56.5,87,72,50,29.82,29.64,14,4,14,0.00
2012-4-3,88.2,76.5,65.2,72.1,65.3,48.5,86,70,43,29.91,29.71,9,2,9,0.00
2012-4-4,92.0,70.8,54.2,52.8,47.2,40.3,71,47,22,29.98,29.81,8,1,8,0.00
2012-4-5,101.3,75.4,60.8,69.8,59.7,48.4,88,62,27,29.95,29.83,10,2,10,0.00
2012-4-6,87.1,74.3,63.0,66.8,61.1,54.5,77,64,49,30.10,29.96,10,3,10,0.00
2012-4-7,87.5,75.1,66.4,66.9,64.0,60.3,86,70,49,30.26,30.08,10,3,10,0.00
2012-4-8,89.1,73.0,61.9,65.8,59.6,54.5,86,65,39,30.32,30.20,6,2,8,0.00
2012-4-9,83.7,72.1,61.6,65.2,59.8,56.3,84,67,46,30.26,30.13,10,2,10,0.00
2012-4-10,86.0,72.6,61.9,64.1,59.5,55.6,82,65,45,30.21,30.09,11,2,11,0.00
2012-4-11,87.5,73.3,61.0,66.5,61.6,55.7,86,69,46,30.19,30.02,10,3,10,0.00
2012-4-12,83.2,73.5,68.4,71.1,65.8,62.9,88,77,59,30.12,29.98,10,4,10,0.10
2012-4-13,82.4,73.5,68.6,71.6,66.9,64.1,88,80,66,30.05,29.91,11,4,11,0.00
2012-4-14,81.2,75.0,71.6,70.0,68.2,66.4,87,80,68,29.97,29.80,18,6,18,0.00
2012-4-15,81.5,74.0,63.4,71.3,60.1,45.5,85,64,35,30.01,29.76,16,5,16,0.00
2012-4-16,74.0,65.7,57.2,53.5,50.2,44.5,76,59,37,30.20,30.00,10,2,10,0.00
2012-4-17,90.7,69.6,56.0,57.2,50.8,40.4,87,57,23,30.28,30.16,7,2,7,0.00
2012-4-18,95.4,72.0,61.0,62.9,55.1,45.0,81,57,30,30.27,30.05,12,2,12,0.00
2012-4-19,94.7,72.1,57.4,63.1,56.3,50.0,79,60,34,30.09,29.84,13,4,13,0.00
2012-4-20,77.8,68.7,62.6,65.6,57.2,45.8,87,69,41,30.09,29.81,13,3,13,0.04
2012-4-21,86.4,66.1,50.8,46.6,44.1,41.0,74,48,24,30.15,30.03,10,2,10,0.00
2012-4-22,101.5,71.2,52.0,57.1,47.7,41.3,69,46,21,30.20,30.08,8,1,8,0.00
2012-4-23,93.2,71.4,58.9,54.4,46.1,40.2,54,42,24,30.31,30.11,9,2,9,0.00
2012-4-24,97.6,72.9,56.9,62.7,54.6,44.6,79,55,31,30.15,29.97,14,3,14,0.00
2012-4-25,103.1,78.8,67.5,68.6,63.9,57.2,80,63,29,30.03,29.88,16,5,16,0.00
2012-4-26,99.0,78.8,66.2,69.5,64.6,60.5,82,65,34,29.97,29.87,14,4,14,0.00
2012-4-27,94.1,77.5,64.8,66.5,63.9,59.9,85,66,34,29.95,29.82,13,5,13,0.00
2012-4-28,91.3,77.6,67.7,68.2,64.8,62.1,85,67,44,29.97,29.86,20,6,20,0.00
2012-4-29,89.8,77.9,71.3,68.8,66.2,63.1,83,69,46,30.04,29.91,13,5,13,0.00
2012-4-30,93.8,77.8,72.7,72.7,68.3,64.4,86,74,45,30.08,29.94,12,4,12,0.00
2012-5-1,92.9,78.3,71.1,72.5,67.6,65.2,87,72,46,30.06,29.88,13,4,13,0.01
2012-5-2,100.3,78.8,70.9,73.0,67.5,64.7,85,70,40,30.00,29.89,10,3,10,0.00
2012-5-3,98.1,81.7,72.2,72.2,68.8,66.2,83,67,42,30.07,29.91,11,4,11,0.00
2012-5-4,105.3,82.2,72.0,72.2,68.5,63.7,85,66,32,30.08,29.92,11,4,11,0.00
2012-5-5,99.9,82.6,72.7,76.1,71.3,67.2,85,70,47,30.04,29.85,14,4,14,0.00
2012-5-6,100.3,78.2,64.6,74.5,67.3,61.8,91,71,42,30.03,29.88,11,4,14,1.53
2012-5-7,100.8,79.5,66.4,75.7,69.1,60.0,87,72,45,30.07,29.83,15,3,15,0.10
2012-5-8,68.4,66.0,63.5,66.0,62.7,60.7,92,89,83,30.14,29.92,14,2,14,0.51
2012-5-9,91.3,71.0,61.2,69.2,62.3,58.6,92,76,46,30.15,29.99,13,2,13,0.07
2012-5-10,81.4,68.7,63.9,69.1,64.2,60.0,91,86,63,30.01,29.82,13,3,13,1.05
2012-5-11,82.4,70.1,61.6,69.7,63.7,59.0,92,81,61,30.04,29.83,12,1,12,0.01
2012-5-12,82.3,70.5,63.2,64.0,60.4,57.1,88,72,45,30.22,30.04,10,2,10,0.01
2012-5-13,94.3,72.2,60.5,66.5,59.2,56.3,89,66,38,30.26,30.13,6,2,6,0.00
2012-5-14,91.1,72.9,61.9,64.3,59.9,55.3,91,66,40,30.19,30.01,14,2,14,1.38
2012-5-15,81.4,65.9,61.7,69.2,61.2,57.7,93,85,60,30.18,30.07,7,1,7,1.79
2012-5-16,93.1,70.8,57.6,67.0,59.0,54.5,91,69,40,30.18,30.05,7,1,7,0.01
2012-5-17,101.0,75.2,59.6,65.5,59.7,54.7,85,62,30,30.13,29.99,8,2,8,0.00
2012-5-18,99.4,76.6,62.5,68.4,62.3,56.5,84,64,34,30.05,29.92,12,4,12,0.00
2012-5-19,99.7,78.6,69.5,69.7,65.6,61.9,86,67,34,30.06,29.95,13,4,13,0.00
2012-5-20,100.1,79.3,70.7,69.7,65.3,57.2,85,65,34,30.18,30.04,8,3,10,0.00
2012-5-21,100.4,78.9,64.1,69.6,63.8,59.1,87,63,34,30.23,30.12,8,1,8,0.00
2012-5-22,102.8,80.4,66.6,68.6,61.4,54.3,77,55,28,30.13,29.91,11,3,11,0.00
2012-5-23,101.9,80.4,70.6,73.8,67.3,55.2,82,66,41,29.94,29.71,15,5,15,0.00
2012-5-24,103.3,82.4,73.3,75.4,70.2,67.2,82,68,41,29.85,29.72,13,5,13,0.00
2012-5-25,100.4,82.5,73.1,73.5,70.3,67.8,84,68,41,30.04,29.85,13,4,13,0.00
2012-5-26,101.9,83.2,73.8,74.0,69.8,65.4,86,66,37,30.10,29.97,13,4,13,0.00
2012-5-27,102.4,81.8,73.1,71.5,68.0,63.2,84,65,35,30.06,29.92,12,4,12,0.00
2012-5-28,105.5,83.6,73.4,74.3,68.8,65.7,83,64,34,30.01,29.88,13,4,13,0.00
2012-5-29,108.7,84.6,73.4,75.3,69.9,66.2,84,64,33,30.02,29.89,12,3,12,0.00
2012-5-30,105.1,83.1,74.0,74.4,70.0,67.0,84,67,35,29.99,29.80,11,4,11,0.00
2012-5-31,84.2,76.3,71.5,71.6,68.2,62.3,85,76,64,30.00,29.79,13,3,13,0.13
2012-6-1,104.0,81.1,66.4,71.0,64.7,59.3,84,60,33,30.11,29.92,9,2,9,0.00
2012-6-2,101.9,83.2,72.0,72.8,68.5,65.5,83,63,39,30.05,29.90,11,4,12,0.00
2012-6-3,91.3,81.2,74.2,73.8,70.0,65.2,84,70,54,30.03,29.91,17,4,17,0.00
2012-6-4,104.0,84.0,73.8,75.7,70.9,66.6,86,67,37,30.00,29.84,12,3,12,0.00
2012-6-5,107.8,84.3,73.3,73.6,69.1,63.6,87,64,29,29.94,29.81,11,2,11,0.00
2012-6-6,109.1,86.3,71.6,71.7,67.7,63.5,82,57,29,29.92,29.82,10,2,10,0.00
2012-6-7,91.3,80.0,74.5,70.5,66.8,59.9,84,66,43,30.06,29.91,7,2,7,0.00
2012-6-8,94.5,78.7,70.4,73.4,67.9,63.8,86,71,49,30.04,29.90,8,2,8,0.00
2012-6-9,107.1,81.9,65.7,73.2,66.7,60.4,84,63,32,29.97,29.79,8,2,8,0.00
2012-6-10,111.1,87.2,73.6,76.3,71.0,64.4,82,62,31,29.92,29.80,14,4,14,0.00
2012-6-11,112.5,89.0,77.0,75.2,72.1,68.9,81,61,29,30.05,29.90,13,5,13,0.00
2012-6-12,107.5,86.1,74.2,76.5,71.7,64.4,84,65,33,30.11,29.99,16,4,16,0.00
2012-6-13,108.4,85.4,73.1,75.4,69.8,63.5,85,63,30,30.14,29.90,11,4,14,0.00
2012-6-14,104.8,84.6,76.0,74.5,70.2,65.5,80,64,35,30.02,29.90,12,4,14,0.00
2012-6-15,108.5,86.3,75.6,73.4,69.4,64.3,81,60,30,30.07,29.94,14,4,14,0.00
2012-6-16,110.5,86.5,74.5,73.9,69.9,63.6,83,61,27,30.13,29.98,10,3,10,0.00
2012-6-17,108.7,85.4,72.9,72.8,68.5,64.5,85,60,30,30.12,29.91,12,2,12,0.00
2012-6-18,104.0,81.0,69.3,74.0,68.2,64.1,91,69,33,30.05,29.83,15,3,15,0.11
2012-6-19,97.9,83.4,75.1,73.8,70.7,67.6,85,67,42,29.97,29.89,13,5,14,0.00
2012-6-20,96.8,81.5,76.1,75.2,71.4,68.6,85,72,48,30.03,29.95,13,4,13,0.00
2012-6-21,103.7,84.3,72.9,74.6,69.2,64.4,88,64,32,30.09,29.98,8,2,8,0.00
2012-6-22,103.7,84.3,69.8,69.4,65.0,61.3,83,56,30,30.07,29.94,8,1,8,0.00
2012-6-23,109.8,86.4,72.2,70.5,64.6,61.3,72,51,25,30.01,29.93,8,2,8,0.00
2012-6-24,112.5,88.3,73.1,72.1,67.0,61.9,77,53,25,30.07,29.95,12,2,12,0.00
2012-6-25,115.7,90.7,75.6,69.6,65.2,59.8,69,46,23,30.03,29.87,7,1,7,0.00
2012-6-26,116.1,91.1,73.4,69.6,64.2,58.8,66,44,23,29.93,29.80,13,2,13,0.00
2012-6-27,115.2,91.3,77.4,70.2,66.1,62.8,66,46,23,30.03,29.87,11,2,11,0.00
2012-6-28,110.2,88.5,75.4,72.9,66.9,61.3,81,52,25,30.13,30.01,11,3,11,0.00
2012-6-29,102.6,84.4,76.1,74.7,70.5,65.3,82,64,39,30.12,29.95,17,3,17,0.00
2012-6-30,99.5,82.5,74.9,75.3,70.8,66.8,85,69,40,30.01,29.92,10,3,10,0.00
2012-7-1,98.1,76.9,70.4,77.0,70.0,66.6,90,80,45,30.08,29.97,23,2,23,0.90
2012-7-2,104.8,84.2,72.9,76.3,71.0,63.8,92,69,30,30.15,30.02,16,4,16,0.00
2012-7-3,101.5,84.4,74.7,74.9,70.4,66.3,86,65,36,30.14,29.97,13,4,13,0.00
2012-7-4,107.3,86.0,76.7,73.0,70.5,65.7,83,63,31,30.10,29.97,14,4,14,0.00
2012-7-5,107.5,84.8,75.8,73.5,70.1,66.9,83,64,31,30.12,30.01,12,4,12,0.00
2012-7-6,110.9,87.0,76.0,73.0,69.2,60.3,83,60,26,30.14,30.00,10,3,10,0.00
2012-7-7,111.6,87.5,74.7,72.2,68.7,62.1,84,57,26,30.13,30.00,12,3,12,0.00
2012-7-8,108.4,86.3,76.7,73.9,69.3,64.5,80,59,30,30.12,29.98,10,3,10,0.00
2012-7-9,107.8,83.2,73.3,77.0,71.0,66.0,87,69,35,30.10,29.93,10,2,10,0.35
2012-7-10,94.0,79.8,72.7,75.4,71.6,68.9,90,77,54,30.05,29.93,9,1,9,0.00
2012-7-11,84.8,74.9,71.1,78.8,71.7,68.1,92,90,77,30.05,29.97,7,1,7,1.28
2012-7-12,107.3,81.6,72.7,78.9,72.1,69.0,93,75,39,30.06,29.95,9,2,9,0.00
2012-7-13,97.2,80.2,74.5,78.9,72.5,69.2,90,79,48,30.09,29.97,9,2,9,0.16
2012-7-14,95.8,80.8,71.3,77.1,71.1,64.9,92,74,49,30.10,29.98,6,1,6,0.00
2012-7-15,106.4,80.9,70.2,74.3,68.9,64.0,87,70,34,30.12,29.97,20,2,20,0.02
2012-7-16,103.9,83.4,71.6,74.2,70.3,65.9,90,68,34,30.09,29.97,11,3,11,0.00
2012-7-17,97.9,83.0,75.4,76.0,72.3,68.9,87,72,49,30.09,29.98,11,3,11,0.00
2012-7-18,91.8,79.2,71.5,75.5,71.7,64.2,89,79,54,30.13,30.05,21,2,21,0.47
2012-7-19,97.0,80.6,70.6,76.6,71.6,67.8,92,76,48,30.22,30.10,8,2,8,0.00
2012-7-20,109.3,85.8,74.2,74.3,70.9,65.8,89,64,30,30.20,30.05,10,3,10,0.00
2012-7-21,112.7,87.5,74.2,72.8,69.5,62.9,85,59,28,30.13,29.99,10,3,10,0.00
2012-7-22,107.8,86.1,74.2,75.2,69.8,63.0,85,61,31,30.13,30.02,8,3,8,0.00
2012-7-23,103.9,84.9,76.3,74.3,71.1,67.5,83,65,36,30.18,30.08,12,3,12,0.00
2012-7-24,108.4,86.0,76.7,74.4,71.1,67.3,85,64,31,30.18,30.00,10,4,10,0.00
2012-7-25,106.2,85.7,76.0,74.4,71.4,68.5,84,65,34,30.09,29.92,14,4,14,0.00
2012-7-26,104.8,85.1,75.6,75.8,71.2,68.6,81,65,36,30.05,29.91,12,4,12,0.00
2012-7-27,105.7,86.0,76.5,76.3,71.5,67.2,85,64,34,30.15,30.03,13,3,13,0.00
2012-7-28,110.0,86.6,75.6,74.5,70.3,65.2,85,62,30,30.22,30.08,9,3,9,0.00
2012-7-29,110.5,87.5,73.4,74.3,69.4,65.4,85,59,29,30.18,30.04,10,2,10,0.00
2012-7-30,112.5,87.8,74.5,72.5,68.1,63.3,81,56,25,30.13,29.98,10,2,10,0.00
2012-7-31,114.1,88.2,75.2,73.8,70.0,65.2,83,58,25,30.11,29.98,10,3,10,0.00
2012-8-1,111.4,87.7,74.5,72.2,67.7,61.8,80,55,25,30.08,29.95,9,3,9,0.00
2012-8-2,111.1,87.2,74.5,73.4,68.3,62.4,83,57,27,30.02,29.89,13,3,13,0.00
2012-8-3,111.1,86.8,75.1,73.3,68.7,64.0,82,58,27,30.01,29.89,14,4,14,0.00
2012-8-4,104.8,86.3,76.1,72.6,68.8,64.6,82,59,34,30.11,29.98,14,4,14,0.00
2012-8-5,103.7,83.4,74.9,75.8,70.2,64.9,85,67,35,30.20,30.10,14,2,14,0.00
2012-8-6,109.3,85.2,71.5,72.8,68.5,64.7,86,61,29,30.19,30.03,11,2,11,0.00
2012-8-7,108.9,87.8,75.2,72.8,69.4,66.3,78,57,30,30.08,29.97,8,2,8,0.00
2012-8-8,109.8,87.7,74.5,71.5,68.3,64.5,79,55,28,30.10,29.97,9,2,9,0.00
2012-8-9,112.1,88.1,76.0,73.3,69.4,64.9,81,57,27,30.09,29.95,9,2,10,0.00
2012-8-10,106.6,85.3,76.0,74.2,69.5,64.7,80,62,29,30.05,29.88,15,2,15,0.00
2012-8-11,111.4,87.4,72.7,72.8,68.4,63.7,82,58,26,30.05,29.93,10,2,10,0.00
2012-8-12,109.3,88.5,76.9,72.2,67.9,62.9,80,54,27,30.08,29.95,12,3,12,0.00
2012-8-13,111.1,88.6,76.9,72.7,69.4,63.3,80,56,29,30.14,29.98,13,3,13,0.00
2012-8-14,109.3,88.1,76.5,74.2,69.3,62.5,81,57,27,30.09,29.91,13,4,13,0.00
2012-8-15,107.5,87.3,76.0,72.1,67.9,61.1,78,56,25,30.04,29.89,17,5,17,0.00
2012-8-16,109.1,87.2,75.1,72.8,69.5,64.0,83,59,29,30.09,29.96,14,4,14,0.00
2012-8-17,108.2,87.5,76.5,74.3,70.2,64.5,83,60,31,30.10,29.93,11,4,11,0.00
2012-8-18,105.3,85.4,72.4,73.4,70.2,65.1,87,63,32,30.04,29.84,12,3,12,0.13
2012-8-19,94.9,78.3,70.7,74.3,70.3,67.4,92,78,49,30.04,29.95,10,2,10,0.50
2012-8-20,102.1,82.0,68.6,71.6,66.5,62.6,89,63,35,30.06,29.94,6,1,6,0.00
2012-8-21,95.9,80.3,70.4,69.8,65.2,61.7,82,62,38,30.09,30.00,8,2,8,0.01
2012-8-22,99.0,81.3,70.0,72.1,67.1,63.7,85,65,37,30.15,30.02,8,2,8,0.00
2012-8-23,104.4,83.3,73.6,73.2,68.5,62.0,85,64,32,30.10,29.97,10,2,10,0.00
2012-8-24,103.3,84.2,74.3,74.4,69.8,64.6,86,64,34,30.04,29.87,14,3,14,0.00
2012-8-25,97.6,83.9,74.9,74.1,70.1,65.2,83,65,40,30.01,29.89,14,4,14,0.00
2012-8-26,102.6,84.5,77.0,74.9,71.5,67.7,84,67,39,30.11,29.98,9,3,9,0.00
2012-8-27,104.2,84.7,73.8,71.7,67.8,62.9,87,61,31,30.14,29.98,10,1,10,0.00
2012-8-28,97.7,85.6,77.0,70.6,67.2,63.3,75,56,34,30.05,29.89,7,2,7,0.00
2012-8-29,97.4,86.4,78.3,70.2,64.7,54.8,73,51,26,29.95,29.80,11,2,11,0.00
2012-8-30,104.0,87.7,76.1,66.0,61.5,56.5,53,42,27,29.91,29.79,5,2,9,0.00
2012-8-31,104.4,87.3,80.5,72.7,68.2,61.6,72,54,33,30.09,29.89,9,2,9,0.00
2012-9-1,99.0,85.0,77.4,75.3,71.5,67.1,84,66,41,30.16,30.04,18,4,18,0.00
2012-9-2,104.9,85.6,75.6,74.6,69.3,60.8,83,61,31,30.15,29.98,14,4,14,0.00
2012-9-3,106.4,85.9,75.2,72.0,69.1,64.2,81,60,31,30.11,29.94,13,4,13,0.00
2012-9-4,107.8,85.9,75.6,75.4,69.7,61.5,83,61,29,30.07,29.91,13,4,13,0.00
2012-9-5,107.6,85.2,74.5,72.7,67.9,60.6,84,60,29,30.01,29.88,10,3,10,0.00
2012-9-6,108.0,85.9,73.6,73.5,68.1,61.5,83,59,29,30.06,29.92,12,2,12,0.00
2012-9-7,108.9,85.2,72.9,73.0,67.0,59.1,85,58,26,30.02,29.87,10,2,10,0.00
2012-9-8,89.5,81.1,75.6,69.6,59.1,45.9,77,49,28,30.14,29.92,12,3,12,0.00
2012-9-9,98.5,76.8,63.9,49.7,44.0,37.5,51,34,15,30.23,30.08,6,1,6,0.00
2012-9-10,99.4,77.3,60.1,56.1,46.5,38.8,51,35,19,30.20,30.05,12,1,12,0.00
2012-9-11,94.0,78.3,63.7,68.2,59.0,51.6,77,55,29,30.17,30.03,11,2,11,0.00
2012-9-12,97.7,82.2,72.7,73.2,69.3,66.0,86,67,39,30.13,29.98,12,3,12,0.00
2012-9-13,94.3,79.2,67.3,74.4,70.6,64.5,91,76,45,30.23,30.05,14,3,14,0.69
2012-9-14,74.3,68.7,66.1,65.8,64.1,62.6,93,86,74,30.28,30.18,7,2,7,2.33
2012-9-15,81.7,71.6,64.8,68.1,63.7,60.2,86,77,61,30.28,30.14,5,1,5,0.00
2012-9-16,72.4,67.4,64.4,69.9,63.6,61.2,93,88,76,30.18,30.02,4,1,4,1.71
2012-9-17,87.7,72.9,65.9,68.2,64.8,62.9,93,78,52,30.05,29.87,7,0,7,0.00
2012-9-18,86.8,74.4,63.9,67.8,62.7,59.5,90,69,43,30.15,29.96,8,1,8,0.00
2012-9-19,90.4,74.2,63.4,64.7,60.8,57.8,84,65,42,30.22,30.10,5,1,5,0.00
2012-9-20,91.6,75.9,64.8,68.7,62.6,57.7,87,65,43,30.18,30.05,10,2,10,0.00
2012-9-21,90.4,74.3,60.5,62.2,57.2,53.5,81,58,32,30.11,30.01,8,1,8,0.00
2012-9-22,89.8,74.5,60.8,68.2,60.7,54.7,84,64,43,30.18,30.08,8,1,8,0.00
2012-9-23,90.7,77.3,64.6,69.7,63.6,58.9,84,65,42,30.26,30.16,7,1,7,0.00
2012-9-24,90.2,78.8,68.2,71.0,67.0,63.5,89,69,48,30.23,30.06,11,2,11,0.00
2012-9-25,90.9,79.8,72.4,71.6,67.1,60.2,87,68,41,30.13,29.98,16,5,16,0.00
2012-9-26,90.4,79.5,70.9,72.4,67.7,62.3,86,69,48,30.13,30.00,12,3,12,0.00
2012-9-27,91.8,78.7,70.2,74.3,68.6,64.5,86,72,50,30.15,30.02,10,2,10,0.00
2012-9-28,85.3,76.3,70.9,74.2,70.5,67.5,91,83,66,30.11,29.98,11,2,11,2.00
2012-9-29,83.2,73.6,69.8,75.7,69.4,64.3,93,87,68,30.02,29.78,13,3,13,0.63
2012-9-30,78.1,71.3,66.4,65.0,62.8,61.0,84,75,62,29.98,29.87,14,4,14,0.00
2012-10-1,80.1,66.2,60.7,69.2,61.2,57.2,90,84,59,30.00,29.91,16,1,16,0.63
2012-10-2,78.7,67.9,60.3,58.8,54.6,47.9,90,65,36,30.08,29.99,10,2,10,0.01
2012-10-3,84.6,70.0,56.7,63.1,57.2,51.4,84,66,45,30.10,30.01,14,2,14,0.00
2012-10-4,90.0,78.4,69.1,73.3,69.0,61.5,88,74,52,30.18,30.08,13,4,13,0.00
2012-10-5,87.8,77.6,69.5,69.8,67.2,63.7,89,72,49,30.18,30.03,13,3,13,0.00
2012-10-6,78.1,70.0,58.5,68.4,62.5,51.7,89,78,64,30.17,30.05,8,2,8,0.00
2012-10-7,58.0,54.5,50.8,51.1,46.1,43.1,81,73,66,30.29,30.17,10,4,10,0.00
2012-10-8,69.7,58.5,50.9,53.4,46.8,40.3,72,65,55,30.30,30.14,6,2,6,0.00
2012-10-9,80.6,69.6,61.4,67.2,60.2,52.4,83,72,61,30.16,30.01,14,3,14,0.00
2012-10-10,88.9,77.9,71.3,73.7,69.6,65.8,88,76,56,30.18,30.06,11,2,11,0.00
2012-10-11,86.4,77.5,73.1,74.7,71.2,67.2,90,81,65,30.20,30.11,12,3,12,0.04
2012-10-12,86.9,77.8,72.4,73.0,70.1,67.3,89,78,61,30.25,30.12,10,3,10,0.00
2012-10-13,87.5,78.5,73.4,74.7,71.5,69.4,88,80,64,30.18,29.94,15,5,15,0.00
2012-10-14,85.3,76.0,68.2,72.9,67.0,57.2,92,75,52,30.16,30.02,12,2,12,0.16
2012-10-15,79.0,69.3,61.0,59.1,56.3,53.4,76,64,47,30.19,30.07,6,1,6,0.00
2012-10-16,74.5,68.2,64.1,67.7,60.9,55.0,88,78,70,30.07,29.87,7,1,7,0.00
2012-10-17,88.9,74.5,65.9,73.2,66.6,62.0,91,78,52,29.88,29.71,10,2,10,0.01
2012-10-18,78.1,70.5,61.2,62.8,49.0,43.8,71,48,33,30.07,29.82,12,3,12,0.00
2012-10-19,81.4,66.7,51.3,47.4,42.2,39.0,67,44,23,30.13,30.00,8,1,8,0.00
2012-10-20,86.2,72.6,59.0,71.5,60.5,43.4,83,66,46,30.02,29.87,13,3,13,0.00
2012-10-21,88.7,78.8,73.3,71.9,69.3,65.0,87,74,50,30.03,29.92,17,6,17,0.00
2012-10-22,88.0,78.3,72.9,71.8,69.4,67.6,87,75,53,30.06,29.96,13,5,13,0.00
2012-10-23,86.4,76.6,71.5,72.4,68.7,65.5,87,77,60,30.06,29.97,10,3,10,0.00
2012-10-24,85.7,75.4,67.0,69.4,65.1,60.8,90,72,51,30.08,29.93,14,3,14,0.00
2012-10-25,87.3,76.6,68.0,71.6,67.1,57.9,87,74,57,30.06,29.90,12,3,12,0.00
2012-10-26,67.5,56.3,48.1,58.6,45.8,37.3,91,69,56,30.29,30.05,11,5,11,1.11
2012-10-27,61.2,53.1,47.2,39.4,34.8,31.7,60,50,37,30.35,30.19,10,3,10,0.00
2012-10-29,52.6,51.8,51.1,40.3,40.0,39.7,65,64,63,30.21,30.20,2,0,2,0.00
2012-10-30,74.9,60.0,45.4,56.9,48.3,37.9,78,66,52,30.20,30.03,11,2,11,0.00
2012-10-31,80.3,67.1,55.3,67.0,57.6,49.5,86,73,55,30.15,30.04,8,1,8,0.00
2012-11-1,82.3,70.5,59.8,68.5,61.1,54.0,91,74,49,30.16,30.05,10,2,10,0.00
2012-11-2,81.9,72.3,63.2,67.0,62.2,57.9,88,72,50,30.13,30.00,11,2,11,0.00
2012-11-3,83.0,68.9,63.0,66.7,61.1,58.2,88,77,51,30.15,30.03,7,1,7,0.00
2012-11-4,83.2,69.4,61.7,63.7,58.8,53.5,89,71,44,30.19,30.09,7,1,7,0.00
2012-11-5,84.6,70.1,58.7,66.2,58.7,48.4,86,68,49,30.15,30.02,10,1,10,0.00
2012-11-6,65.5,59.0,54.4,48.7,44.7,40.3,62,59,54,30.20,30.14,3,0,3,0.00
2012-11-7,68.9,65.6,63.5,52.4,51.8,51.1,66,61,55,30.18,30.16,0,0,0,0.00
2012-11-8,81.7,70.4,56.0,62.9,55.6,50.5,87,62,43,30.21,30.07,0,0,0,0.00
2012-11-9,80.1,78.0,77.0,62.1,58.5,56.4,56,51,49,30.16,30.10,0,0,0,0.00
2012-12-27,56.5,46.4,45.2,42.4,40.5,36.6,88,80,52,29.29,29.23,0,0,0,0.00
2012-12-28,67.0,51.9,40.0,47.3,35.3,25.7,92,59,22,29.57,29.21,11,2,11,0.00
2012-12-29,51.7,43.4,36.4,26.7,22.1,17.8,59,43,32,29.86,29.56,12,2,12,0.00
2012-12-30,54.0,44.1,31.9,45.9,29.3,20.7,84,57,39,29.86,29.56,7,2,7,0.00
2012-12-31,60.8,55.6,49.7,59.4,53.1,45.4,95,91,84,29.57,29.32,9,1,9,0.09
2013-1-1,60.3,50.6,41.9,58.7,47.1,37.3,95,88,77,29.64,29.37,8,3,8,0.08